Portada
METAR-TAF:

METAR-TAF

Aeroports :

Cachimbo, Pará, Brasil

latitud: 09-20S, longitud: 054-57W, altitud: 536 m

Observació

L'informe es va fer fa 12 hores i 3 minuts, a les 23:00 UTC
Vent 6 kt del Nord-Est
Temperatura 23°C
Humitat 61%
Pressió 1014 hPa
Visibilitat 10 km o més
sense núvols per sota de 1500 mi sense presència de cumulonimbus.

METAR: SBCC 162300Z 05006KT CAVOK 23/15 Q1014

Hora: 08:03 (11:03 UTC)


TAF: manca

Observacions i pronòstics meteorològics de més de 4000 aeroports (METAR i TAF).

Les estacions disponibles són els punts grocs i vermells al mapa.

Posi el ratolí al punt desitjat per veure el nom de l'estació.

Feu clic per veure les observacions i els pronòstics meteorològics.

Per canviar el mapa: feu clic els botons verds amb una creu de color negre per apropar; al botó verd amb un guió per allunyar la imatge; o en les fletxes verdes per a mapes adjacents.


METAR-TAF: